Time;durP1;ratioP1;P1;durP2;ratioP2;P2;SDS_P1;SDS_P2;PMS_P1;PMS_P2;Temp;Humidity;BMP_temperature;BMP_pressure;BME280_temperature;BME280_humidity;BME280_pressure;Samples;Min_cycle;Max_cycle;Signal;HPM_P1;HPM_P2
2021/07/27 00:01:38;;;;;;;7.68;3.65;;;;;;;18.22;78.71;99870.88;4991019;28;20073;-63
2021/07/27 00:04:04;;;;;;;7.05;3.95;;;;;;;18.18;79.61;99875.88;4990419;28;20058;-62
2021/07/27 00:06:31;;;;;;;5.05;3.60;;;;;;;18.16;79.36;99869.81;4992409;28;20050;-62
2021/07/27 00:08:58;;;;;;;6.57;3.97;;;;;;;18.33;78.21;99871.13;4992016;28;20077;-63
2021/07/27 00:11:24;;;;;;;7.53;3.88;;;;;;;18.25;78.73;99868.63;4990567;28;20054;-63
2021/07/27 00:13:50;;;;;;;5.07;3.70;;;;;;;18.26;78.63;99864.88;4987251;28;20074;-63
2021/07/27 00:16:18;;;;;;;5.05;3.42;;;;;;;18.37;78.18;99861.56;4988170;28;20508;-66
2021/07/27 00:18:44;;;;;;;5.82;4.13;;;;;;;18.40;77.63;99866.56;4984817;28;20038;-63
2021/07/27 00:21:10;;;;;;;6.25;3.30;;;;;;;18.33;78.61;99862.16;4991036;28;20046;-62
2021/07/27 00:23:38;;;;;;;4.90;3.35;;;;;;;18.32;78.20;99858.59;4990315;28;20082;-63
2021/07/27 00:26:10;;;;;;;10.20;3.72;;;;;;;18.40;78.31;99855.72;4991375;28;20046;-63
2021/07/27 00:28:37;;;;;;;10.38;3.33;;;;;;;18.45;77.63;99862.41;4991738;28;20070;-64
2021/07/27 00:33:30;;;;;;;7.47;4.10;;;;;;;18.50;77.74;99859.94;5036833;23;20561;-79
2021/07/27 00:35:56;;;;;;;6.10;3.35;;;;;;;18.56;77.44;99859.94;5025638;28;20133;-78
2021/07/27 00:38:23;;;;;;;5.50;3.38;;;;;;;18.56;77.76;99842.78;5038153;28;20111;-76
2021/07/27 00:40:50;;;;;;;6.20;3.90;;;;;;;18.55;77.56;99854.69;5024834;28;20077;-76
2021/07/27 00:43:19;;;;;;;5.25;3.67;;;;;;;18.57;77.60;99842.56;5014103;28;20057;-78
2021/07/27 00:45:47;;;;;;;6.78;3.97;;;;;;;18.64;77.21;99839.91;5022324;28;20050;-79
2021/07/27 00:48:13;;;;;;;5.22;3.25;;;;;;;18.54;77.82;99839.44;5018879;28;20046;-77
2021/07/27 00:50:42;;;;;;;5.38;4.00;;;;;;;18.77;76.77;99839.09;5015413;28;21964;-78
2021/07/27 00:53:08;;;;;;;5.03;3.50;;;;;;;18.70;77.08;99845.34;5017579;28;20053;-76
2021/07/27 00:55:35;;;;;;;9.07;4.82;;;;;;;18.61;77.58;99840.31;5027126;28;20822;-78
2021/07/27 00:58:02;;;;;;;5.80;3.58;;;;;;;18.58;77.80;99840.69;5022837;28;20049;-78
2021/07/27 01:00:29;;;;;;;7.45;3.63;;;;;;;18.65;77.39;99836.16;5016954;28;20164;-79
2021/07/27 01:02:56;;;;;;;5.80;3.88;;;;;;;18.69;77.32;99832.81;5019791;28;20411;-77
2021/07/27 01:05:24;;;;;;;6.05;3.80;;;;;;;18.68;77.33;99833.00;5023929;28;20041;-78
2021/07/27 01:07:53;;;;;;;4.90;3.33;;;;;;;18.69;77.32;99826.53;5029143;28;20069;-80
2021/07/27 01:10:19;;;;;;;8.93;4.25;;;;;;;18.61;77.86;99835.72;5036348;28;20045;-78
2021/07/27 01:12:47;;;;;;;6.70;3.47;;;;;;;18.59;77.70;99823.38;5025488;28;20110;-78
2021/07/27 01:15:14;;;;;;;8.30;3.85;;;;;;;18.69;77.52;99821.09;5020342;28;20046;-77
2021/07/27 01:17:42;;;;;;;4.85;3.42;;;;;;;18.71;77.49;99824.47;5015277;28;20099;-75
2021/07/27 01:20:16;;;;;;;10.65;3.83;;;;;;;18.54;78.36;99818.53;5016379;28;20054;-78
2021/07/27 01:39:26;;;;;;;5.90;3.53;;;;;;;17.99;81.42;99815.00;5022156;28;20057;-77
2021/07/27 01:42:07;;;;;;;7.78;3.70;;;;;;;18.01;80.73;99814.84;5013397;28;20121;-79
2021/07/27 01:44:35;;;;;;;5.85;3.50;;;;;;;17.97;81.23;99817.09;5017502;28;20046;-79
2021/07/27 01:47:01;;;;;;;5.93;3.60;;;;;;;17.90;81.24;99818.97;5017929;28;20084;-78
2021/07/27 01:49:28;;;;;;;6.50;3.50;;;;;;;17.86;81.31;99814.13;5016608;28;20042;-79
2021/07/27 01:51:55;;;;;;;5.72;3.33;;;;;;;17.83;81.50;99815.38;5020272;28;20050;-79
2021/07/27 01:54:30;;;;;;;6.75;4.20;;;;;;;18.05;80.83;99816.09;5029403;28;20538;-77
2021/07/27 01:56:58;;;;;;;6.28;3.72;;;;;;;17.90;81.28;99809.97;5027101;28;20084;-78
2021/07/27 01:59:24;;;;;;;8.27;4.10;;;;;;;17.94;81.08;99811.25;5003439;28;20065;-76
2021/07/27 02:01:51;;;;;;;7.85;4.25;;;;;;;17.94;80.99;99803.94;5021129;28;20050;-77
2021/07/27 02:04:17;;;;;;;5.38;3.42;;;;;;;17.90;81.40;99807.25;5006455;28;20370;-77
2021/07/27 02:06:44;;;;;;;11.13;4.55;;;;;;;17.91;81.21;99796.19;5021943;28;20049;-78
2021/07/27 02:09:10;;;;;;;7.03;3.92;;;;;;;17.85;81.71;99812.44;5017324;28;20054;-77
2021/07/27 02:11:42;;;;;;;7.05;3.80;;;;;;;18.07;80.71;99812.13;5013083;28;20065;-78
2021/07/27 02:14:11;;;;;;;9.48;5.00;;;;;;;17.96;81.19;99817.31;5013099;28;20074;-81
2021/07/27 02:16:38;;;;;;;5.30;3.70;;;;;;;17.92;81.40;99826.91;5018128;28;20171;-78
2021/07/27 02:19:05;;;;;;;7.32;4.43;;;;;;;17.87;81.71;99823.94;5027330;28;20042;-78
2021/07/27 02:21:32;;;;;;;5.65;3.60;;;;;;;17.76;82.28;99826.22;5017509;28;20058;-79
2021/07/27 02:24:00;;;;;;;6.00;3.83;;;;;;;17.72;82.79;99824.91;5012383;28;20373;-80
2021/07/27 02:26:27;;;;;;;7.88;4.63;;;;;;;17.70;82.56;99827.00;5027680;28;20495;-79
2021/07/27 02:28:55;;;;;;;6.28;4.10;;;;;;;17.61;83.10;99822.72;5015199;28;20057;-79
2021/07/27 02:31:27;;;;;;;8.88;4.53;;;;;;;17.60;83.13;99826.47;5024702;28;20049;-78
2021/07/27 02:33:54;;;;;;;9.93;4.22;;;;;;;17.50;83.56;99832.25;5014601;28;20246;-79
2021/07/27 02:36:20;;;;;;;7.72;4.70;;;;;;;17.57;82.96;99817.91;5016422;28;20096;-78
2021/07/27 02:38:48;;;;;;;6.82;4.47;;;;;;;17.47;83.53;99837.25;5026783;28;20069;-79
2021/07/27 02:41:15;;;;;;;8.68;4.68;;;;;;;17.46;83.35;99835.59;5025129;28;20559;-78
2021/07/27 02:43:41;;;;;;;6.28;3.80;;;;;;;17.48;83.40;99828.06;5018181;28;20145;-80
2021/07/27 02:46:10;;;;;;;8.00;4.03;;;;;;;17.44;83.20;99834.94;5017582;28;20049;-78
2021/07/27 02:48:36;;;;;;;8.73;4.45;;;;;;;17.32;84.13;99828.41;5021233;28;20346;-79
2021/07/27 02:51:03;;;;;;;7.65;4.47;;;;;;;17.24;84.49;99832.09;5018607;28;20046;-79
2021/07/27 02:53:30;;;;;;;8.50;4.85;;;;;;;17.18;84.34;99828.31;5025361;28;20384;-76
2021/07/27 02:56:00;;;;;;;5.97;3.65;;;;;;;17.15;84.56;99831.38;5011634;28;20424;-76
2021/07/27 02:58:34;;;;;;;7.05;4.15;;;;;;;17.25;83.97;99828.34;5021280;28;20060;-77
2021/07/27 03:01:02;;;;;;;5.53;3.58;;;;;;;17.16;84.30;99835.75;5017295;28;20111;-79
2021/07/27 03:03:30;;;;;;;6.00;3.72;;;;;;;17.14;84.30;99835.13;5017679;28;20041;-78
2021/07/27 03:06:01;;;;;;;7.97;4.50;;;;;;;17.12;84.61;99848.06;5018060;28;20058;-79
2021/07/27 03:08:46;;;;;;;9.75;4.90;;;;;;;17.18;84.34;99849.16;5016606;28;20049;-78
2021/07/27 03:11:13;;;;;;;7.72;4.45;;;;;;;17.19;84.44;99846.25;5026841;28;20492;-75
2021/07/27 03:13:40;;;;;;;7.93;4.47;;;;;;;17.24;84.28;99865.47;5016992;28;20065;-78
2021/07/27 03:16:07;;;;;;;7.60;4.43;;;;;;;17.24;84.05;99864.63;5023520;28;20527;-76
2021/07/27 03:18:35;;;;;;;9.10;4.57;;;;;;;17.31;83.62;99865.53;5024450;28;20100;-78
2021/07/27 03:21:01;;;;;;;7.47;4.22;;;;;;;17.21;84.13;99873.16;5017531;28;20096;-79
2021/07/27 03:23:29;;;;;;;7.38;4.95;;;;;;;17.12;84.68;99866.19;5019364;28;20060;-79
2021/07/27 03:25:55;;;;;;;8.30;4.18;;;;;;;17.09;84.19;99861.16;5012789;28;20049;-77
2021/07/27 03:28:22;;;;;;;7.97;4.15;;;;;;;17.02;84.82;99871.94;5025859;28;20507;-77
2021/07/27 03:30:49;;;;;;;7.53;4.30;;;;;;;17.18;84.04;99865.44;5031016;28;20097;-78
2021/07/27 03:33:16;;;;;;;7.95;4.28;;;;;;;17.15;84.20;99872.06;5017739;28;20105;-76
2021/07/27 03:35:44;;;;;;;15.63;4.53;;;;;;;17.11;84.29;99868.06;5016376;28;20096;-77
2021/07/27 03:38:11;;;;;;;7.57;4.63;;;;;;;17.00;84.91;99865.88;5019279;28;20100;-77
2021/07/27 03:40:38;;;;;;;5.72;4.22;;;;;;;17.12;84.06;99872.44;5017770;28;20056;-78
2021/07/27 03:43:04;;;;;;;9.05;4.78;;;;;;;17.14;83.61;99875.81;5032786;28;20060;-76
2021/07/27 03:45:31;;;;;;;7.88;5.15;;;;;;;17.10;83.92;99876.41;5030663;28;20054;-78
2021/07/27 03:47:58;;;;;;;5.68;3.72;;;;;;;17.10;84.12;99874.53;5012517;28;20461;-78
2021/07/27 03:50:24;;;;;;;7.10;4.72;;;;;;;17.22;83.06;99878.38;5014897;28;20119;-78
2021/07/27 03:52:52;;;;;;;5.78;4.00;;;;;;;17.28;82.62;99875.91;5021053;28;20100;-77
2021/07/27 03:55:19;;;;;;;9.50;4.63;;;;;;;17.29;82.45;99883.03;5019890;28;20053;-77
2021/07/27 03:57:45;;;;;;;6.03;4.10;;;;;;;17.25;82.86;99888.84;5017221;28;20052;-78
2021/07/27 04:00:13;;;;;;;6.90;4.28;;;;;;;17.20;82.78;99883.16;5029555;28;20038;-77
2021/07/27 04:02:40;;;;;;;6.25;3.40;;;;;;;17.14;83.25;99883.09;5020200;28;20557;-77
2021/07/27 04:05:08;;;;;;;6.25;3.65;;;;;;;17.03;83.70;99889.88;5027243;28;20046;-79
2021/07/27 04:07:34;;;;;;;7.40;4.63;;;;;;;17.02;83.56;99888.22;5020797;28;20380;-78
2021/07/27 04:10:03;;;;;;;5.43;3.67;;;;;;;17.04;83.94;99883.44;5017655;28;20046;-81
2021/07/27 04:12:29;;;;;;;5.53;3.65;;;;;;;17.12;83.11;99886.00;5019972;28;20049;-79
2021/07/27 04:17:27;;;;;;;5.38;3.63;;;;;;;17.25;82.17;99891.53;5019405;28;20534;-63
2021/07/27 04:19:54;;;;;;;9.00;4.78;;;;;;;17.27;82.44;99896.78;5027907;28;20067;-63
2021/07/27 04:22:21;;;;;;;7.15;4.30;;;;;;;17.32;82.28;99898.91;5027920;28;20080;-62
2021/07/27 04:24:47;;;;;;;8.07;4.03;;;;;;;17.37;82.17;99893.72;5024923;28;20092;-63
2021/07/27 04:27:15;;;;;;;6.72;3.55;;;;;;;17.39;81.87;99902.50;5029097;28;20045;-63
2021/07/27 04:29:41;;;;;;;9.10;4.25;;;;;;;17.66;79.78;99906.28;5029973;28;20092;-63
2021/07/27 04:32:07;;;;;;;6.03;3.80;;;;;;;17.68;80.24;99894.19;5029101;28;20041;-61
2021/07/27 04:34:34;;;;;;;7.10;3.83;;;;;;;17.70;80.37;99900.28;5030114;28;20046;-62
2021/07/27 04:37:00;;;;;;;5.75;3.97;;;;;;;17.77;79.73;99906.59;5030918;28;20046;-64
2021/07/27 04:39:28;;;;;;;6.90;3.95;;;;;;;17.92;78.92;99895.59;5022585;28;20070;-63
2021/07/27 04:41:55;;;;;;;7.25;4.22;;;;;;;18.01;78.73;99904.44;5029272;28;20131;-62
2021/07/27 04:44:22;;;;;;;7.65;3.60;;;;;;;18.15;77.74;99906.19;5029142;28;20087;-68
2021/07/27 04:46:49;;;;;;;7.70;3.85;;;;;;;18.24;77.57;99915.00;5029399;28;20211;-62
2021/07/27 04:49:15;;;;;;;6.88;4.13;;;;;;;18.48;76.34;99910.94;5029971;28;20041;-62
2021/07/27 04:51:41;;;;;;;5.25;3.42;;;;;;;18.55;76.50;99911.78;5028889;28;20051;-63
2021/07/27 04:54:14;;;;;;;7.05;3.53;;;;;;;18.62;76.35;99910.75;5024192;28;20085;-61
2021/07/27 04:56:41;;;;;;;7.25;3.80;;;;;;;18.84;74.66;99906.03;5030171;28;20055;-62
2021/07/27 04:59:07;;;;;;;5.75;4.00;;;;;;;18.84;74.09;99921.53;5028076;28;20077;-61
2021/07/27 05:01:38;;;;;;;7.47;3.55;;;;;;;18.96;74.60;99915.28;5029179;28;20443;-62
2021/07/27 05:04:05;;;;;;;6.15;3.67;;;;;;;19.09;73.66;99919.06;5026972;28;20049;-61
2021/07/27 05:06:31;;;;;;;6.07;3.80;;;;;;;19.32;73.05;99921.38;5030060;28;20415;-62
2021/07/27 05:08:57;;;;;;;6.85;3.65;;;;;;;19.45;72.19;99918.66;5030795;28;20049;-60
2021/07/27 05:11:24;;;;;;;5.10;3.22;;;;;;;19.55;72.22;99922.66;5026610;28;20721;-60
2021/07/27 05:13:52;;;;;;;6.03;3.40;;;;;;;19.66;71.47;99925.81;5024679;28;20397;-63
2021/07/27 05:16:20;;;;;;;4.78;3.13;;;;;;;19.80;70.69;99924.75;5029915;28;20099;-61
2021/07/27 05:18:48;;;;;;;7.40;3.75;;;;;;;19.83;70.69;99932.47;5024239;28;20033;-64
2021/07/27 05:21:14;;;;;;;5.57;3.60;;;;;;;19.96;70.53;99937.06;5030102;28;20041;-62
2021/07/27 05:23:41;;;;;;;7.88;3.47;;;;;;;20.21;70.59;99934.47;5029084;28;20049;-63
2021/07/27 05:26:07;;;;;;;6.20;3.38;;;;;;;20.43;68.79;99933.19;5030030;28;20138;-63
2021/07/27 05:28:33;;;;;;;5.18;3.63;;;;;;;20.35;68.73;99941.56;5029402;28;20503;-66
2021/07/27 05:31:00;;;;;;;7.28;3.75;;;;;;;20.17;69.09;99938.69;5029318;28;20096;-64
2021/07/27 05:33:28;;;;;;;6.78;3.60;;;;;;;20.07;69.20;99930.97;5028638;28;20041;-67
2021/07/27 05:35:55;;;;;;;4.78;3.55;;;;;;;20.05;69.20;99936.63;5029091;28;20131;-65
2021/07/27 05:38:21;;;;;;;5.68;3.53;;;;;;;20.07;69.11;99934.53;5028501;28;20068;-64
2021/07/27 05:40:51;;;;;;;6.85;3.58;;;;;;;19.98;69.54;99938.50;5028083;28;20045;-64
2021/07/27 05:43:17;;;;;;;5.60;3.22;;;;;;;19.77;70.57;99930.59;5028323;28;20410;-68
2021/07/27 05:45:44;;;;;;;5.07;3.50;;;;;;;19.71;70.39;99939.59;5027898;28;20423;-67
2021/07/27 05:48:10;;;;;;;6.07;3.85;;;;;;;19.72;70.92;99935.84;5029297;28;20499;-65
2021/07/27 05:50:36;;;;;;;7.95;3.80;;;;;;;19.76;69.82;99934.34;5027865;28;20045;-65
2021/07/27 05:53:04;;;;;;;6.28;3.50;;;;;;;20.00;68.39;99941.84;5026376;28;20519;-66
2021/07/27 05:55:30;;;;;;;7.47;4.13;;;;;;;19.89;70.29;99936.22;5028392;28;20328;-68
2021/07/27 05:57:57;;;;;;;5.82;3.80;;;;;;;19.74;69.96;99929.13;5028033;28;20114;-66
2021/07/27 06:00:23;;;;;;;5.28;3.38;;;;;;;19.87;69.37;99936.44;5028215;28;20089;-66
2021/07/27 06:02:49;;;;;;;8.23;4.00;;;;;;;20.04;69.29;99939.56;5026720;28;20582;-64
2021/07/27 06:05:16;;;;;;;7.50;3.47;;;;;;;20.28;68.13;99941.59;5028855;28;20171;-65
2021/07/27 06:07:42;;;;;;;5.78;3.53;;;;;;;20.42;67.42;99936.97;5029349;28;20472;-65
2021/07/27 06:10:11;;;;;;;7.70;3.90;;;;;;;20.53;67.52;99941.75;5030262;28;20041;-64
2021/07/27 06:12:38;;;;;;;4.90;3.22;;;;;;;20.71;67.00;99941.84;5031952;28;20081;-67
2021/07/27 06:15:05;;;;;;;6.97;3.70;;;;;;;20.85;67.32;99944.53;5031845;28;20099;-61
2021/07/27 06:17:32;;;;;;;8.57;3.90;;;;;;;20.94;67.96;99943.19;5032542;28;20077;-67
2021/07/27 06:19:58;;;;;;;6.45;3.50;;;;;;;20.96;65.30;99943.84;5031982;28;20075;-66
2021/07/27 06:22:24;;;;;;;5.78;3.47;;;;;;;21.07;65.21;99940.38;5032946;28;20170;-65
2021/07/27 06:24:50;;;;;;;5.25;3.55;;;;;;;21.24;66.06;99951.63;5031887;28;20115;-65
2021/07/27 06:27:18;;;;;;;8.10;3.65;;;;;;;21.38;65.58;99941.47;5031748;28;20095;-64
2021/07/27 06:29:44;;;;;;;5.07;3.20;;;;;;;21.54;64.30;99946.38;5033789;28;20049;-64
2021/07/27 06:32:11;;;;;;;6.15;3.33;;;;;;;21.51;64.70;99947.66;5032514;28;20488;-68
2021/07/27 06:34:37;;;;;;;4.22;2.85;;;;;;;21.73;62.48;99950.84;5029613;28;20080;-66
2021/07/27 06:37:04;;;;;;;8.30;3.58;;;;;;;21.65;63.15;99958.47;5031307;28;20373;-63
2021/07/27 06:39:30;;;;;;;3.78;2.72;;;;;;;21.66;64.21;99954.69;5029084;28;20049;-65
2021/07/27 06:41:57;;;;;;;6.10;2.88;;;;;;;21.87;63.28;99965.22;5034350;28;20076;-67
2021/07/27 06:44:24;;;;;;;3.95;2.88;;;;;;;21.99;63.51;99965.31;5033366;28;20356;-64
2021/07/27 06:46:51;;;;;;;6.80;3.20;;;;;;;21.97;62.07;99961.97;5031247;28;20142;-67
2021/07/27 06:49:17;;;;;;;5.68;2.97;;;;;;;21.98;61.35;99969.09;5029579;28;20065;-67
2021/07/27 06:51:43;;;;;;;5.35;3.08;;;;;;;21.95;59.99;99972.28;5030751;28;20117;-65
2021/07/27 06:54:09;;;;;;;8.15;3.35;;;;;;;21.93;60.72;99961.59;5031290;28;20150;-66
2021/07/27 06:56:37;;;;;;;5.45;2.10;;;;;;;22.13;60.23;99966.88;5019856;28;20077;-68
2021/07/27 06:59:03;;;;;;;5.88;3.22;;;;;;;22.26;59.44;99972.22;5030846;28;20473;-65
2021/07/27 07:01:31;;;;;;;11.50;3.30;;;;;;;22.42;59.84;99962.56;5026739;28;20133;-67
2021/07/27 07:03:58;;;;;;;4.05;2.60;;;;;;;22.65;58.52;99965.44;5016282;28;20539;-65
2021/07/27 07:06:24;;;;;;;6.80;3.00;;;;;;;22.88;58.10;99966.66;5047264;23;20520;-67
2021/07/27 07:08:51;;;;;;;4.55;2.63;;;;;;;22.94;58.44;99963.81;5054653;28;20094;-66
2021/07/27 07:11:17;;;;;;;5.97;3.03;;;;;;;22.92;59.35;99963.22;5054491;28;20094;-65
2021/07/27 07:13:44;;;;;;;3.70;2.53;;;;;;;22.92;59.23;99965.97;5056930;28;20094;-65
2021/07/27 07:16:11;;;;;;;4.18;2.85;;;;;;;23.07;58.61;99967.44;5038099;28;20081;-63
2021/07/27 07:18:39;;;;;;;5.28;2.80;;;;;;;23.27;57.94;99962.50;5033339;28;20054;-66
2021/07/27 07:21:07;;;;;;;4.20;2.80;;;;;;;23.39;56.93;99966.13;5032234;28;20076;-66
2021/07/27 07:23:35;;;;;;;3.55;2.65;;;;;;;23.54;57.05;99962.91;5029063;28;20090;-65
2021/07/27 07:26:04;;;;;;;6.05;3.38;;;;;;;23.55;56.57;99964.59;5042284;28;20052;-66
2021/07/27 07:28:30;;;;;;;5.80;3.33;;;;;;;23.74;57.36;99968.94;5035574;28;20049;-64
2021/07/27 07:30:57;;;;;;;4.90;2.65;;;;;;;23.61;56.56;99963.69;5035651;28;20114;-66
2021/07/27 07:33:23;;;;;;;4.93;2.65;;;;;;;23.85;55.73;99959.06;5031534;28;20220;-66
2021/07/27 07:35:51;;;;;;;5.45;2.70;;;;;;;23.90;55.21;99964.66;5044420;28;20507;-67
2021/07/27 07:38:17;;;;;;;3.20;2.50;;;;;;;23.84;54.24;99957.41;5042244;28;20053;-64
2021/07/27 07:40:43;;;;;;;5.50;2.88;;;;;;;23.74;55.22;99962.63;5024031;28;20130;-68
2021/07/27 07:43:10;;;;;;;5.32;2.70;;;;;;;23.75;55.94;99964.31;5029388;28;20115;-66
2021/07/27 07:45:37;;;;;;;4.10;3.03;;;;;;;23.78;53.69;99963.81;5030465;28;20075;-65
2021/07/27 07:48:04;;;;;;;5.95;2.88;;;;;;;23.95;53.48;99963.97;5041715;28;20047;-65
2021/07/27 07:50:31;;;;;;;6.32;2.70;;;;;;;24.17;52.57;99957.63;5043080;28;20096;-65
2021/07/27 07:53:00;;;;;;;3.80;2.58;;;;;;;24.27;51.06;99961.66;5029045;28;20056;-63
2021/07/27 07:55:26;;;;;;;5.10;3.08;;;;;;;24.64;50.27;99962.22;5036458;28;20053;-65
2021/07/27 07:57:53;;;;;;;4.63;2.70;;;;;;;25.07;50.80;99962.56;5031263;28;20049;-63
2021/07/27 08:00:20;;;;;;;8.38;3.08;;;;;;;25.20;48.88;99961.41;5031196;28;20220;-66
2021/07/27 08:02:46;;;;;;;4.20;2.72;;;;;;;25.31;49.76;99967.94;5038029;28;20081;-66
2021/07/27 08:05:13;;;;;;;4.30;2.50;;;;;;;25.43;47.79;99963.19;5042696;28;20098;-65
2021/07/27 08:07:39;;;;;;;3.65;2.47;;;;;;;25.49;49.13;99969.63;5029405;28;20099;-66
2021/07/27 08:10:08;;;;;;;5.13;2.70;;;;;;;25.15;50.07;99968.75;5032844;28;20080;-65
2021/07/27 08:12:34;;;;;;;7.63;2.80;;;;;;;24.72;50.96;99956.34;5027235;28;20081;-65
2021/07/27 08:15:00;;;;;;;4.93;2.38;;;;;;;24.64;51.13;99960.31;5019209;28;20466;-64
2021/07/27 08:17:27;;;;;;;4.63;2.65;;;;;;;24.43;53.82;99963.72;5033742;28;20045;-65
2021/07/27 08:19:53;;;;;;;5.32;2.60;;;;;;;24.58;52.54;99964.03;5037983;28;20060;-65
2021/07/27 08:22:19;;;;;;;4.45;2.53;;;;;;;24.80;51.28;99964.19;5026377;28;20069;-65
2021/07/27 08:24:46;;;;;;;3.83;2.33;;;;;;;24.66;51.28;99966.41;5033479;28;20073;-64
2021/07/27 08:27:13;;;;;;;5.00;2.40;;;;;;;24.94;52.46;99972.97;5038059;28;20048;-64
2021/07/27 08:29:40;;;;;;;6.00;2.97;;;;;;;25.15;50.57;99968.75;5024585;28;20084;-64
2021/07/27 08:32:08;;;;;;;10.02;3.22;;;;;;;24.94;50.37;99959.25;5030229;28;20057;-65
2021/07/27 08:34:35;;;;;;;4.15;2.80;;;;;;;25.12;49.22;99963.75;5036993;28;20429;-65
2021/07/27 08:37:01;;;;;;;4.15;2.78;;;;;;;25.20;50.15;99961.41;5035323;28;20076;-66
2021/07/27 08:39:27;;;;;;;4.32;2.60;;;;;;;25.22;51.04;99963.91;5033751;28;20102;-66
2021/07/27 08:41:55;;;;;;;3.90;2.63;;;;;;;25.13;50.30;99966.25;5019890;28;20077;-65
2021/07/27 08:44:23;;;;;;;5.40;2.70;;;;;;;24.70;50.29;99956.59;5025251;28;20041;-67
2021/07/27 08:46:49;;;;;;;4.13;2.55;;;;;;;25.09;50.06;99970.53;5023253;28;20135;-66
2021/07/27 08:49:16;;;;;;;4.53;2.65;;;;;;;25.18;48.91;99974.56;5028719;28;20096;-65
2021/07/27 08:51:43;;;;;;;4.05;2.22;;;;;;;25.69;47.96;99964.50;5031634;28;20069;-65
2021/07/27 08:54:10;;;;;;;3.97;2.40;;;;;;;26.17;47.75;99971.31;5026801;28;20068;-67
2021/07/27 08:56:44;;;;;;;5.53;3.05;;;;;;;25.94;47.26;99980.59;5020256;28;20629;-65
2021/07/27 08:59:11;;;;;;;4.97;2.88;;;;;;;25.28;47.99;99963.78;5024806;28;20051;-66
2021/07/27 09:01:39;;;;;;;4.20;2.47;;;;;;;25.29;48.90;99973.69;5025405;28;20436;-64
2021/07/27 09:04:05;;;;;;;4.70;2.75;;;;;;;24.97;49.72;99977.97;5019400;28;22974;-66
2021/07/27 09:06:31;;;;;;;3.78;1.98;;;;;;;24.92;50.71;99981.47;5031376;28;20130;-66
2021/07/27 09:09:04;;;;;;;4.93;2.55;;;;;;;25.47;48.69;99985.53;5023083;28;20404;-67
2021/07/27 09:11:30;;;;;;;3.28;2.40;;;;;;;25.72;48.39;99985.16;5024569;28;20049;-65
2021/07/27 09:13:57;;;;;;;3.13;2.38;;;;;;;25.88;45.96;99976.91;5034870;28;20044;-65
2021/07/27 09:16:23;;;;;;;4.35;2.45;;;;;;;26.01;46.01;99980.41;5030935;28;20140;-66
2021/07/27 09:18:59;;;;;;;5.15;2.50;;;;;;;25.96;45.25;99978.41;5034529;28;20584;-66
2021/07/27 09:21:25;;;;;;;4.38;2.80;;;;;;;25.85;46.08;99969.16;5032798;28;20056;-64
2021/07/27 09:23:52;;;;;;;9.75;2.83;;;;;;;26.08;45.68;99962.66;5032378;28;20041;-65
2021/07/27 09:26:21;;;;;;;3.80;2.30;;;;;;;26.50;45.02;99964.91;5039518;28;20095;-66
2021/07/27 09:28:47;;;;;;;3.25;2.13;;;;;;;26.70;43.37;99967.06;5032417;28;20473;-65
2021/07/27 09:31:13;;;;;;;3.55;2.25;;;;;;;26.60;45.85;99964.19;5036336;28;20041;-64
2021/07/27 09:33:40;;;;;;;3.92;2.35;;;;;;;26.67;45.65;99970.34;5025350;28;20134;-66
2021/07/27 09:36:09;;;;;;;3.15;1.90;;;;;;;26.78;44.44;99972.97;5032348;28;20040;-63
2021/07/27 09:38:36;;;;;;;3.42;2.15;;;;;;;27.05;44.63;99967.53;5035030;28;20057;-66
2021/07/27 09:41:05;;;;;;;3.70;2.63;;;;;;;26.93;43.44;99961.28;5026358;28;20087;-64
2021/07/27 09:43:32;;;;;;;3.53;2.05;;;;;;;26.73;45.78;99964.63;5031347;28;20136;-66
2021/07/27 09:46:01;;;;;;;5.90;2.40;;;;;;;26.73;44.99;99972.91;5038461;28;20069;-66
2021/07/27 09:48:29;;;;;;;2.92;2.10;;;;;;;26.57;43.33;99967.47;5023946;28;20046;-67
2021/07/27 09:50:56;;;;;;;3.03;2.28;;;;;;;26.42;44.85;99968.94;5016918;28;20046;-66
2021/07/27 09:53:24;;;;;;;5.55;2.38;;;;;;;26.35;44.17;99959.16;5028284;28;20138;-66
2021/07/27 09:55:51;;;;;;;7.20;2.28;;;;;;;26.68;43.66;99963.75;5026246;28;20046;-66
2021/07/27 09:58:19;;;;;;;3.70;2.10;;;;;;;26.58;41.98;99966.38;5034572;28;20518;-66
2021/07/27 10:00:52;;;;;;;2.67;2.10;;;;;;;26.58;43.69;99960.88;5031973;28;20427;-66
2021/07/27 10:03:23;;;;;;;5.80;2.53;;;;;;;26.92;44.47;99964.31;5037573;28;20079;-65
2021/07/27 10:05:53;;;;;;;6.70;2.50;;;;;;;27.07;42.04;99964.50;5040343;28;20041;-65
2021/07/27 10:08:29;;;;;;;2.92;2.00;;;;;;;26.60;40.65;99955.94;5033023;28;20041;-67
2021/07/27 10:11:07;;;;;;;3.97;1.75;;;;;;;26.60;42.29;99967.78;5024807;28;20126;-65
2021/07/27 10:13:35;;;;;;;4.03;2.03;;;;;;;26.44;44.88;99961.25;5028605;28;20426;-66
2021/07/27 10:16:01;;;;;;;5.30;2.40;;;;;;;26.10;46.62;99970.63;5034085;28;20404;-65
2021/07/27 10:18:31;;;;;;;2.90;2.17;;;;;;;26.19;44.06;99974.63;5030388;28;20450;-65
2021/07/27 10:21:23;;;;;;;3.90;2.03;;;;;;;26.37;44.65;99966.09;5031161;28;20751;-63
2021/07/27 10:23:51;;;;;;;3.80;2.15;;;;;;;26.76;45.85;99963.31;5029753;28;20053;-65
2021/07/27 10:26:27;;;;;;;3.13;2.08;;;;;;;26.13;43.90;99959.97;5035254;28;20056;-64
2021/07/27 10:28:54;;;;;;;4.13;2.10;;;;;;;26.20;45.67;99959.78;5028310;28;20049;-66
2021/07/27 10:31:30;;;;;;;3.80;2.50;;;;;;;25.92;44.39;99952.47;5027012;28;20123;-66
2021/07/27 10:33:57;;;;;;;3.60;2.30;;;;;;;26.10;45.40;99965.13;5033859;28;20132;-66
2021/07/27 10:36:26;;;;;;;4.03;1.98;;;;;;;26.23;42.94;99959.28;5022190;28;20073;-65
2021/07/27 10:38:54;;;;;;;3.75;2.15;;;;;;;26.30;45.28;99964.59;5028435;28;20053;-64
2021/07/27 10:41:20;;;;;;;2.85;1.90;;;;;;;26.20;43.97;99959.78;5035851;28;20461;-66
2021/07/27 10:43:47;;;;;;;2.42;1.80;;;;;;;26.67;44.66;99964.84;5035752;28;20053;-64
2021/07/27 10:46:13;;;;;;;3.03;1.70;;;;;;;26.83;43.33;99965.84;5039623;28;20057;-66
2021/07/27 10:48:41;;;;;;;4.00;2.15;;;;;;;27.10;41.66;99959.28;5023150;28;20451;-66
2021/07/27 10:51:09;;;;;;;2.60;1.90;;;;;;;27.67;40.85;99969.78;5022859;28;20128;-67
2021/07/27 10:53:36;;;;;;;4.28;2.70;;;;;;;27.71;42.55;99964.59;5027007;28;20067;-65
2021/07/27 10:56:06;;;;;;;6.20;2.50;;;;;;;28.10;42.20;99961.56;5034005;28;20049;-65
2021/07/27 10:58:35;;;;;;;4.20;2.00;;;;;;;27.72;41.23;99966.25;5038692;28;20314;-65
2021/07/27 11:01:12;;;;;;;3.72;1.75;;;;;;;26.89;40.42;99960.16;5043717;28;20041;-67
2021/07/27 11:03:40;;;;;;;3.00;1.85;;;;;;;27.37;39.03;99948.28;5028658;28;20046;-65
2021/07/27 11:06:07;;;;;;;2.65;2.00;;;;;;;27.52;38.97;99958.59;5034639;28;20063;-64
2021/07/27 11:08:34;;;;;;;3.42;1.90;;;;;;;26.95;40.66;99950.84;5031633;28;20420;-67
2021/07/27 11:11:06;;;;;;;4.65;2.08;;;;;;;27.40;40.79;99952.44;5029967;28;20128;-67
2021/07/27 11:13:33;;;;;;;4.75;2.10;;;;;;;27.50;40.00;99958.03;5039136;28;20530;-66
2021/07/27 11:16:00;;;;;;;3.30;2.05;;;;;;;28.00;39.58;99954.03;5034031;28;20042;-64
2021/07/27 11:18:28;;;;;;;4.47;2.13;;;;;;;27.58;40.37;99959.47;5037143;28;20057;-66
2021/07/27 11:20:55;;;;;;;2.55;1.90;;;;;;;27.29;41.64;99951.50;5038801;28;20044;-65
2021/07/27 11:23:22;;;;;;;6.15;1.85;;;;;;;27.68;40.54;99954.91;5029872;28;20049;-65
2021/07/27 11:25:52;;;;;;;4.88;1.92;;;;;;;27.64;39.39;99963.94;5034956;28;20408;-65
2021/07/27 11:28:21;;;;;;;3.35;1.92;;;;;;;27.26;40.09;99956.72;5040426;28;20127;-67
2021/07/27 11:30:48;;;;;;;2.97;1.80;;;;;;;27.56;41.12;99956.16;5034315;28;20475;-66
2021/07/27 11:33:15;;;;;;;5.80;2.33;;;;;;;27.50;41.64;99963.56;5032580;28;20057;-63
2021/07/27 11:35:42;;;;;;;4.18;1.80;;;;;;;27.48;40.72;99960.25;5028141;28;20096;-65
2021/07/27 11:38:09;;;;;;;5.20;2.00;;;;;;;26.71;42.09;99958.56;5019956;28;20073;-65
2021/07/27 11:40:36;;;;;;;2.92;1.90;;;;;;;26.67;42.73;99964.84;5032627;28;20055;-64
2021/07/27 11:43:09;;;;;;;5.15;1.90;;;;;;;26.68;41.75;99961.84;5037024;28;20057;-65
2021/07/27 11:45:38;;;;;;;2.20;1.55;;;;;;;26.86;41.96;99957.91;5035294;28;20079;-64
2021/07/27 11:48:05;;;;;;;5.60;2.13;;;;;;;26.41;41.83;99953.53;5025624;28;20067;-66
2021/07/27 11:50:33;;;;;;;5.28;2.00;;;;;;;26.65;43.10;99956.03;5026990;28;20076;-65
2021/07/27 11:53:00;;;;;;;5.30;2.38;;;;;;;26.46;42.92;99959.06;5032421;28;20057;-65
2021/07/27 11:55:31;;;;;;;2.78;1.75;;;;;;;26.76;42.48;99961.41;5030901;28;20049;-64
2021/07/27 11:57:58;;;;;;;4.07;1.77;;;;;;;26.82;42.78;99959.50;5030489;28;20108;-64